createdAt,value
2022-08-26T00:02:08.096Z,19.40
2022-08-26T00:04:36.371Z,19.40
2022-08-26T00:07:05.332Z,19.30
2022-08-26T00:09:39.074Z,19.20
2022-08-26T00:12:12.486Z,19.20
2022-08-26T00:14:41.631Z,19.10
2022-08-26T00:17:09.825Z,19.10
2022-08-26T00:19:37.921Z,19.20
2022-08-26T00:22:06.124Z,19.10
2022-08-26T00:24:34.097Z,19.10
2022-08-26T00:27:02.110Z,19.10
2022-08-26T00:29:34.854Z,19.10
2022-08-26T00:32:07.364Z,19.20
2022-08-26T00:34:36.299Z,19.20
2022-08-26T00:37:04.493Z,19.20
2022-08-26T00:39:37.797Z,19.20
2022-08-26T00:42:06.059Z,19.20
2022-08-26T00:44:35.345Z,19.10
2022-08-26T00:47:08.729Z,19.20
2022-08-26T00:49:39.735Z,19.10
2022-08-26T00:52:12.080Z,19.10
2022-08-26T00:54:46.905Z,19.10
2022-08-26T00:57:17.514Z,19.10
2022-08-26T00:59:48.736Z,19.10
2022-08-26T01:02:21.140Z,19.10
2022-08-26T01:04:56.002Z,19.10
2022-08-26T01:07:26.453Z,19.10
2022-08-26T01:10:04.080Z,19.10
2022-08-26T01:12:37.989Z,19.10
2022-08-26T01:15:11.084Z,19.00
2022-08-26T01:17:39.790Z,19.00
2022-08-26T01:20:18.385Z,19.00
2022-08-26T01:22:53.495Z,19.00
2022-08-26T01:25:23.885Z,19.00
2022-08-26T01:27:53.074Z,19.00
2022-08-26T01:30:21.991Z,19.10
2022-08-26T01:32:51.464Z,19.10
2022-08-26T01:35:20.206Z,19.10
2022-08-26T01:37:53.082Z,19.10
2022-08-26T01:40:25.537Z,19.00
2022-08-26T01:42:56.061Z,18.90
2022-08-26T01:45:27.221Z,18.90
2022-08-26T01:47:57.888Z,18.90
2022-08-26T01:50:30.691Z,18.80
2022-08-26T01:53:04.089Z,18.70
2022-08-26T01:55:34.205Z,18.70
2022-08-26T01:58:05.688Z,18.70
2022-08-26T02:00:35.165Z,18.60
2022-08-26T02:03:21.561Z,18.50
2022-08-26T02:05:59.744Z,18.40
2022-08-26T02:08:33.122Z,18.40
2022-08-26T02:11:01.171Z,18.40
2022-08-26T02:13:32.478Z,18.40
2022-08-26T02:16:01.902Z,18.40
2022-08-26T02:18:31.718Z,18.30
2022-08-26T02:21:00.283Z,18.40
2022-08-26T02:23:29.453Z,18.30
2022-08-26T02:26:03.723Z,18.30
2022-08-26T02:28:36.724Z,18.30
2022-08-26T02:31:04.870Z,18.20
2022-08-26T02:33:32.925Z,18.10
2022-08-26T02:36:00.782Z,18.00
2022-08-26T02:38:30.068Z,18.00
2022-08-26T02:40:57.909Z,18.00
2022-08-26T02:43:32.645Z,18.00
2022-08-26T02:46:02.501Z,18.00
2022-08-26T02:48:31.495Z,18.00
2022-08-26T02:51:01.743Z,18.00
2022-08-26T02:53:32.095Z,18.00
2022-08-26T02:56:04.163Z,18.00
2022-08-26T02:58:32.396Z,18.00
2022-08-26T03:01:01.504Z,18.00
2022-08-26T03:03:30.042Z,18.00
2022-08-26T03:05:58.599Z,18.00
2022-08-26T03:08:26.401Z,18.00
2022-08-26T03:10:56.445Z,17.90
2022-08-26T03:13:24.250Z,17.90
2022-08-26T03:15:52.074Z,17.90
2022-08-26T03:18:19.921Z,17.90
2022-08-26T03:20:48.397Z,17.90
2022-08-26T03:23:16.656Z,17.80
2022-08-26T03:25:50.169Z,17.80
2022-08-26T03:28:19.815Z,17.80
2022-08-26T03:30:48.015Z,17.80
2022-08-26T03:33:17.258Z,17.80
2022-08-26T03:35:47.672Z,17.80
2022-08-26T03:38:19.199Z,17.90
2022-08-26T03:40:47.536Z,18.00
2022-08-26T03:43:16.872Z,18.00
2022-08-26T03:45:46.153Z,18.10
2022-08-26T03:48:14.704Z,18.20
2022-08-26T03:50:43.815Z,18.30
2022-08-26T03:53:12.892Z,18.20
2022-08-26T03:55:42.380Z,18.20
2022-08-26T03:58:11.532Z,18.20
2022-08-26T04:00:39.603Z,18.10
2022-08-26T04:03:10.006Z,18.10
2022-08-26T04:05:38.835Z,18.00
2022-08-26T04:08:07.021Z,18.00
2022-08-26T04:10:38.283Z,18.00
2022-08-26T04:13:06.097Z,18.00
2022-08-26T04:15:34.144Z,18.00
2022-08-26T04:18:02.068Z,17.90
2022-08-26T04:20:31.825Z,17.90
2022-08-26T04:22:59.673Z,17.80
2022-08-26T04:25:27.484Z,17.90
2022-08-26T04:27:55.382Z,17.80
2022-08-26T04:30:23.452Z,17.80
2022-08-26T04:32:53.245Z,17.80
2022-08-26T04:35:25.799Z,17.80
2022-08-26T04:37:55.969Z,17.90
2022-08-26T04:40:24.145Z,17.90
2022-08-26T04:42:53.741Z,17.90
2022-08-26T04:45:22.925Z,17.90
2022-08-26T04:47:54.578Z,17.90
2022-08-26T04:50:23.524Z,18.00
2022-08-26T04:52:51.388Z,18.00
2022-08-26T04:55:20.544Z,18.00
2022-08-26T04:57:53.350Z,17.90
2022-08-26T05:00:21.904Z,17.90
2022-08-26T05:02:49.851Z,17.90
2022-08-26T05:05:19.449Z,17.90
2022-08-26T05:07:48.619Z,17.90
2022-08-26T05:10:17.856Z,17.90
2022-08-26T05:12:47.724Z,17.90
2022-08-26T05:15:15.589Z,17.90
2022-08-26T05:17:44.152Z,18.00
2022-08-26T05:20:12.340Z,18.00
2022-08-26T05:22:40.377Z,18.10
2022-08-26T05:25:09.048Z,18.10
2022-08-26T05:27:36.873Z,18.20
2022-08-26T05:30:07.496Z,18.30
2022-08-26T05:32:35.316Z,18.40
2022-08-26T05:35:03.525Z,18.40
2022-08-26T05:37:38.364Z,18.50
2022-08-26T05:40:08.041Z,18.60
2022-08-26T05:42:36.368Z,18.70
2022-08-26T05:45:06.223Z,18.70
2022-08-26T05:47:34.567Z,18.80
2022-08-26T05:50:05.386Z,18.90
2022-08-26T05:52:33.520Z,19.00
2022-08-26T05:55:01.458Z,19.00
2022-08-26T05:57:29.568Z,19.10
2022-08-26T05:59:57.849Z,19.20
2022-08-26T06:02:27.427Z,19.30
2022-08-26T06:04:55.392Z,19.40
2022-08-26T06:07:43.942Z,19.50
2022-08-26T06:10:32.547Z,19.60
2022-08-26T06:13:04.395Z,19.70
2022-08-26T06:15:42.061Z,19.80
2022-08-26T06:18:11.457Z,20.00
2022-08-26T06:20:43.584Z,20.10
2022-08-26T06:23:40.453Z,20.20
2022-08-26T06:26:08.388Z,20.30
2022-08-26T06:28:38.945Z,20.40
2022-08-26T06:31:07.032Z,20.50
2022-08-26T06:33:37.293Z,20.50
2022-08-26T06:36:06.620Z,20.60
2022-08-26T06:38:35.036Z,20.80
2022-08-26T06:41:04.457Z,21.00
2022-08-26T06:43:32.239Z,21.10
2022-08-26T06:46:02.887Z,21.20
2022-08-26T06:48:33.286Z,21.30
2022-08-26T06:51:08.937Z,21.40
2022-08-26T06:53:37.701Z,21.60
2022-08-26T06:56:11.123Z,21.60
2022-08-26T06:58:40.616Z,21.70
2022-08-26T07:01:17.048Z,21.80
2022-08-26T07:03:46.543Z,21.90
2022-08-26T07:06:18.399Z,22.10
2022-08-26T07:08:46.568Z,22.20
2022-08-26T07:11:15.538Z,22.30
2022-08-26T07:13:43.707Z,22.50
2022-08-26T07:16:13.366Z,22.70
2022-08-26T07:18:44.954Z,22.80
2022-08-26T07:21:17.166Z,23.00
2022-08-26T07:23:46.240Z,23.10
2022-08-26T07:26:17.678Z,23.30
2022-08-26T07:28:46.668Z,23.40
2022-08-26T07:31:16.971Z,23.60
2022-08-26T07:33:45.439Z,23.70
2022-08-26T07:36:14.979Z,23.80
2022-08-26T07:38:45.207Z,24.00
2022-08-26T07:41:14.133Z,24.00
2022-08-26T07:43:45.404Z,24.10
2022-08-26T07:46:18.352Z,24.10
2022-08-26T07:48:50.045Z,24.10
2022-08-26T07:51:19.737Z,24.10
2022-08-26T07:53:52.509Z,24.10
2022-08-26T07:56:21.234Z,24.10
2022-08-26T07:58:51.613Z,24.10
2022-08-26T08:01:20.198Z,24.10
2022-08-26T08:03:51.275Z,24.10
2022-08-26T08:06:19.206Z,24.10
2022-08-26T08:08:50.863Z,24.30
2022-08-26T08:11:21.329Z,24.40
2022-08-26T08:13:56.124Z,24.50
2022-08-26T08:16:25.231Z,24.70
2022-08-26T08:18:54.330Z,25.00
2022-08-26T08:21:24.348Z,25.10
2022-08-26T08:23:54.636Z,25.30
2022-08-26T08:26:23.705Z,25.50
2022-08-26T08:28:51.916Z,25.90
2022-08-26T08:31:38.772Z,26.20
2022-08-26T08:34:09.276Z,26.60
2022-08-26T08:36:37.097Z,27.00
2022-08-26T08:39:06.948Z,27.20
2022-08-26T08:41:50.945Z,27.40
2022-08-26T08:44:21.130Z,27.50
2022-08-26T08:46:56.217Z,27.50
2022-08-26T08:49:26.493Z,27.50
2022-08-26T08:51:59.998Z,27.40
2022-08-26T08:54:31.328Z,27.40
2022-08-26T08:57:04.872Z,27.50
2022-08-26T08:59:38.324Z,27.70
2022-08-26T09:02:14.479Z,27.80
2022-08-26T09:05:04.405Z,27.90
2022-08-26T09:07:36.998Z,27.90
2022-08-26T09:10:37.020Z,27.80
2022-08-26T09:13:13.624Z,27.70
2022-08-26T09:15:53.695Z,27.70
2022-08-26T09:18:37.793Z,27.80
2022-08-26T09:21:09.053Z,27.90
2022-08-26T09:23:40.957Z,27.90
2022-08-26T09:26:19.420Z,27.80
2022-08-26T09:28:48.790Z,27.80
2022-08-26T09:31:23.659Z,27.90
2022-08-26T09:34:07.136Z,28.00
2022-08-26T09:36:41.244Z,28.30
2022-08-26T09:39:27.554Z,28.60
2022-08-26T09:42:09.626Z,28.70
2022-08-26T09:44:54.294Z,28.90
2022-08-26T09:47:26.589Z,29.20
2022-08-26T09:50:00.692Z,29.30
2022-08-26T09:52:30.032Z,29.50
2022-08-26T09:55:11.104Z,29.60
2022-08-26T09:57:49.383Z,29.60
2022-08-26T10:00:29.563Z,29.60
2022-08-26T10:02:58.418Z,29.70
2022-08-26T10:05:43.993Z,29.80
2022-08-26T10:08:23.408Z,29.80
2022-08-26T10:10:53.169Z,29.90
2022-08-26T10:13:28.007Z,30.00
2022-08-26T10:16:05.688Z,30.20
2022-08-26T10:18:36.792Z,30.20
2022-08-26T10:21:10.723Z,30.20
2022-08-26T10:23:43.585Z,30.10
2022-08-26T10:26:17.285Z,30.00
2022-08-26T10:28:51.965Z,30.10
2022-08-26T10:31:40.400Z,30.20
2022-08-26T10:34:10.251Z,30.40
2022-08-26T10:37:15.013Z,30.70
2022-08-26T10:39:46.063Z,30.90
2022-08-26T10:42:22.798Z,31.10
2022-08-26T10:44:58.604Z,31.20
2022-08-26T10:47:34.568Z,31.20
2022-08-26T10:50:04.475Z,31.30
2022-08-26T10:52:47.541Z,31.40
2022-08-26T10:55:20.782Z,31.30
2022-08-26T10:57:56.680Z,31.20
2022-08-26T11:00:49.204Z,31.20
2022-08-26T11:03:30.217Z,31.20
2022-08-26T11:06:16.713Z,31.30
2022-08-26T11:08:47.743Z,31.40
2022-08-26T11:11:46.793Z,31.60
2022-08-26T11:14:41.066Z,31.70
2022-08-26T11:17:57.507Z,31.60
2022-08-26T11:20:39.114Z,31.40
2022-08-26T11:23:41.613Z,31.30
2022-08-26T11:26:36.024Z,31.30
2022-08-26T11:29:13.412Z,31.30
2022-08-26T11:31:56.514Z,31.10
2022-08-26T11:34:53.980Z,31.00
2022-08-26T11:37:25.425Z,30.80
2022-08-26T11:39:57.125Z,30.60
2022-08-26T11:42:33.084Z,30.60
2022-08-26T11:45:05.468Z,30.80
2022-08-26T11:47:33.790Z,30.80
2022-08-26T11:50:11.817Z,31.00
2022-08-26T11:52:39.851Z,31.20
2022-08-26T11:55:11.002Z,31.40
2022-08-26T11:57:45.619Z,31.60
2022-08-26T12:00:22.388Z,31.80
2022-08-26T12:02:52.594Z,32.00
2022-08-26T12:05:27.141Z,32.20
2022-08-26T12:08:02.979Z,32.50
2022-08-26T12:10:33.546Z,32.60
2022-08-26T12:13:03.882Z,32.70
2022-08-26T12:15:33.896Z,32.50
2022-08-26T12:18:28.893Z,32.40
2022-08-26T12:21:00.265Z,32.10
2022-08-26T12:23:41.969Z,31.90
2022-08-26T12:26:14.774Z,31.70
2022-08-26T12:28:51.016Z,31.40
2022-08-26T12:31:25.508Z,31.00
2022-08-26T12:33:54.540Z,30.70
2022-08-26T12:36:28.631Z,30.40
2022-08-26T12:38:58.597Z,30.20
2022-08-26T12:41:48.184Z,29.90
2022-08-26T12:44:53.676Z,29.80
2022-08-26T12:47:35.122Z,29.60
2022-08-26T12:50:17.296Z,29.50
2022-08-26T12:52:57.189Z,29.30
2022-08-26T12:55:28.869Z,29.30
2022-08-26T12:58:21.994Z,29.40
2022-08-26T13:00:51.428Z,29.50
2022-08-26T13:03:40.148Z,29.60
2022-08-26T13:06:15.954Z,29.60
2022-08-26T13:08:46.840Z,29.50
2022-08-26T13:11:18.469Z,29.60
2022-08-26T13:13:47.063Z,29.50
2022-08-26T13:16:15.809Z,29.50
2022-08-26T13:18:43.721Z,29.50
2022-08-26T13:21:18.161Z,29.50
2022-08-26T13:23:48.057Z,29.50
2022-08-26T13:26:16.648Z,29.50
2022-08-26T13:28:44.629Z,29.40
2022-08-26T13:31:17.187Z,29.30
2022-08-26T13:33:48.420Z,29.20
2022-08-26T13:36:17.263Z,29.10
2022-08-26T13:38:45.193Z,29.00
2022-08-26T13:41:29.173Z,29.00
2022-08-26T13:43:58.805Z,28.80
2022-08-26T13:46:27.915Z,28.70
2022-08-26T13:48:55.912Z,28.40
2022-08-26T13:51:24.542Z,28.00
2022-08-26T13:53:52.943Z,27.70
2022-08-26T13:56:22.836Z,27.40
2022-08-26T13:58:51.207Z,27.00
2022-08-26T14:01:19.116Z,26.80
2022-08-26T14:03:47.211Z,26.60
2022-08-26T14:06:15.219Z,26.40
2022-08-26T14:08:43.569Z,26.20
2022-08-26T14:11:11.624Z,25.70
2022-08-26T14:13:40.785Z,25.20
2022-08-26T14:16:13.387Z,24.70
2022-08-26T14:18:46.265Z,24.30
2022-08-26T14:21:17.923Z,24.00
2022-08-26T14:23:45.952Z,23.70
2022-08-26T14:26:23.098Z,23.60
2022-08-26T14:28:58.669Z,23.30
2022-08-26T14:31:29.052Z,23.10
2022-08-26T14:33:58.602Z,22.80
2022-08-26T14:36:29.033Z,22.50
2022-08-26T14:38:58.208Z,22.30
2022-08-26T14:41:27.016Z,22.20
2022-08-26T14:44:00.046Z,22.10
2022-08-26T14:46:29.700Z,22.10
2022-08-26T14:49:01.729Z,22.00
2022-08-26T14:51:30.992Z,22.00
2022-08-26T14:54:13.987Z,22.00
2022-08-26T14:56:45.717Z,22.00
2022-08-26T14:59:17.379Z,22.10
2022-08-26T15:01:45.883Z,22.10
2022-08-26T15:04:14.751Z,22.10
2022-08-26T15:06:42.764Z,22.10
2022-08-26T15:09:10.797Z,22.20
2022-08-26T15:11:38.704Z,22.20
2022-08-26T15:14:07.245Z,22.20
2022-08-26T15:16:36.791Z,22.20
2022-08-26T15:19:05.880Z,22.20
2022-08-26T15:21:34.414Z,22.20
2022-08-26T15:24:03.055Z,22.10
2022-08-26T15:26:32.160Z,22.20
2022-08-26T15:29:04.720Z,22.10
2022-08-26T15:31:33.810Z,22.10
2022-08-26T15:34:06.923Z,22.10
2022-08-26T15:36:37.191Z,22.10
2022-08-26T15:39:07.245Z,22.00
2022-08-26T15:41:35.673Z,21.90
2022-08-26T15:44:04.232Z,21.90
2022-08-26T15:46:32.402Z,21.80
2022-08-26T15:49:02.237Z,21.70
2022-08-26T15:51:32.443Z,21.60
2022-08-26T15:54:00.544Z,21.50
2022-08-26T15:56:30.469Z,21.40
2022-08-26T15:58:58.873Z,21.30
2022-08-26T16:01:28.073Z,21.20
2022-08-26T16:03:56.582Z,21.20
2022-08-26T16:06:28.683Z,21.10
2022-08-26T16:08:57.437Z,21.10
2022-08-26T16:11:26.773Z,21.00
2022-08-26T16:13:55.045Z,21.00
2022-08-26T16:16:23.163Z,20.90
2022-08-26T16:18:51.545Z,20.80
2022-08-26T16:21:21.885Z,20.80
2022-08-26T16:23:51.693Z,20.70
2022-08-26T16:26:22.812Z,20.70
2022-08-26T16:28:50.620Z,20.70
2022-08-26T16:31:18.806Z,20.70
2022-08-26T16:33:47.080Z,20.80
2022-08-26T16:36:15.659Z,20.80
2022-08-26T16:38:47.577Z,20.80
2022-08-26T16:41:17.464Z,20.80
2022-08-26T16:43:45.674Z,20.80
2022-08-26T16:46:15.969Z,20.80
2022-08-26T16:48:45.112Z,20.80
2022-08-26T16:51:13.944Z,20.70
2022-08-26T16:53:41.892Z,20.80
2022-08-26T16:56:13.260Z,20.70
2022-08-26T16:58:42.804Z,20.70
2022-08-26T17:01:11.494Z,20.50
2022-08-26T17:03:39.344Z,20.50
2022-08-26T17:06:07.868Z,20.50
2022-08-26T17:08:37.175Z,20.40
2022-08-26T17:11:05.141Z,20.40
2022-08-26T17:13:35.895Z,20.40
2022-08-26T17:16:07.370Z,20.40
2022-08-26T17:18:36.540Z,20.50
2022-08-26T17:21:07.345Z,20.50
2022-08-26T17:23:35.552Z,20.60
2022-08-26T17:26:03.617Z,20.60
2022-08-26T17:28:31.913Z,20.60
2022-08-26T17:31:01.086Z,20.70
2022-08-26T17:33:30.688Z,20.60
2022-08-26T17:35:59.024Z,20.60
2022-08-26T17:38:29.029Z,20.60
2022-08-26T17:40:56.957Z,20.60
2022-08-26T17:43:26.653Z,20.60
2022-08-26T17:45:58.781Z,20.70
2022-08-26T17:48:37.225Z,20.60
2022-08-26T17:51:09.093Z,20.60
2022-08-26T17:53:37.256Z,20.70
2022-08-26T17:56:07.721Z,20.70
2022-08-26T17:58:36.771Z,20.70
2022-08-26T18:01:06.357Z,20.60
2022-08-26T18:03:36.241Z,20.70
2022-08-26T18:06:08.872Z,20.60
2022-08-26T18:08:36.776Z,20.60
2022-08-26T18:11:08.114Z,20.60
2022-08-26T18:13:36.021Z,20.60
2022-08-26T18:16:06.157Z,20.50
2022-08-26T18:18:34.567Z,20.50
2022-08-26T18:21:04.413Z,20.50
2022-08-26T18:23:32.209Z,20.50
2022-08-26T18:26:00.045Z,20.50
2022-08-26T18:28:27.940Z,20.50
2022-08-26T18:30:57.538Z,20.50
2022-08-26T18:33:25.539Z,20.50
2022-08-26T18:35:53.640Z,20.50
2022-08-26T18:38:22.791Z,20.40
2022-08-26T18:40:50.626Z,20.50
2022-08-26T18:43:18.412Z,20.40
2022-08-26T18:45:46.298Z,20.40
2022-08-26T18:48:14.564Z,20.30
2022-08-26T18:50:46.962Z,20.40
2022-08-26T18:53:15.562Z,20.40
2022-08-26T18:55:44.741Z,20.30
2022-08-26T18:58:12.577Z,20.30
2022-08-26T19:00:40.376Z,20.30
2022-08-26T19:03:08.286Z,20.40
2022-08-26T19:05:47.557Z,20.40
2022-08-26T19:08:15.390Z,20.30
2022-08-26T19:10:44.521Z,20.40
2022-08-26T19:13:13.399Z,20.30
2022-08-26T19:15:45.717Z,20.30
2022-08-26T19:18:15.818Z,20.30
2022-08-26T19:20:46.758Z,20.30
2022-08-26T19:23:30.799Z,20.30
2022-08-26T19:26:04.548Z,20.20
2022-08-26T19:28:33.101Z,20.20
2022-08-26T19:31:01.472Z,20.30
2022-08-26T19:33:29.807Z,20.20
2022-08-26T19:35:57.681Z,20.20
2022-08-26T19:38:25.582Z,20.10
2022-08-26T19:40:55.733Z,20.20
2022-08-26T19:43:24.940Z,20.20
2022-08-26T19:45:52.990Z,20.10
2022-08-26T19:48:21.234Z,20.20
2022-08-26T19:50:49.429Z,20.20
2022-08-26T19:53:17.289Z,20.10
2022-08-26T19:55:45.099Z,20.10
2022-08-26T19:58:12.926Z,20.20
2022-08-26T20:00:42.717Z,20.10
2022-08-26T20:03:10.717Z,20.00
2022-08-26T20:05:43.723Z,20.10
2022-08-26T20:08:22.180Z,20.00
2022-08-26T20:10:51.479Z,20.10
2022-08-26T20:13:19.408Z,20.00
2022-08-26T20:15:48.781Z,20.00
2022-08-26T20:18:34.192Z,20.00
2022-08-26T20:21:19.821Z,20.00
2022-08-26T20:23:47.807Z,19.90
2022-08-26T20:26:15.684Z,19.90
2022-08-26T20:28:43.504Z,19.90
2022-08-26T20:31:12.982Z,19.90
2022-08-26T20:33:46.085Z,19.90
2022-08-26T20:36:15.798Z,19.90
2022-08-26T20:38:43.674Z,19.80
2022-08-26T20:41:11.725Z,19.80
2022-08-26T20:43:39.529Z,19.80
2022-08-26T20:46:08.275Z,19.80
2022-08-26T20:48:42.075Z,19.80
2022-08-26T20:51:10.076Z,19.80
2022-08-26T20:53:38.031Z,19.80
2022-08-26T20:56:08.388Z,19.80
2022-08-26T20:58:37.225Z,19.70
2022-08-26T21:01:08.069Z,19.70
2022-08-26T21:03:36.827Z,19.70
2022-08-26T21:06:06.602Z,19.70
2022-08-26T21:08:34.402Z,19.70
2022-08-26T21:11:02.632Z,19.70
2022-08-26T21:13:42.809Z,19.70
2022-08-26T21:16:20.379Z,19.70
2022-08-26T21:18:48.358Z,19.70
2022-08-26T21:21:18.012Z,19.70
2022-08-26T21:23:46.498Z,19.70
2022-08-26T21:26:16.663Z,19.60
2022-08-26T21:28:46.217Z,19.60
2022-08-26T21:31:16.426Z,19.60
2022-08-26T21:33:44.262Z,19.60
2022-08-26T21:36:13.192Z,19.60
2022-08-26T21:38:43.209Z,19.60
2022-08-26T21:41:14.469Z,19.60
2022-08-26T21:43:44.439Z,19.60
2022-08-26T21:46:14.864Z,19.50
2022-08-26T21:48:48.749Z,19.50
2022-08-26T21:51:20.519Z,19.50
2022-08-26T21:53:52.622Z,19.50
2022-08-26T21:56:21.452Z,19.40
2022-08-26T21:58:49.311Z,19.40
2022-08-26T22:01:22.274Z,19.40
2022-08-26T22:03:52.469Z,19.40
2022-08-26T22:06:22.748Z,19.40
2022-08-26T22:08:52.657Z,19.40
2022-08-26T22:11:20.965Z,19.30
2022-08-26T22:13:49.612Z,19.40
2022-08-26T22:16:18.225Z,19.30
2022-08-26T22:18:46.558Z,19.30
2022-08-26T22:21:17.081Z,19.30
2022-08-26T22:23:45.377Z,19.20
2022-08-26T22:26:20.588Z,19.20
2022-08-26T22:28:55.585Z,19.30
2022-08-26T22:31:28.210Z,19.20
2022-08-26T22:34:07.637Z,19.20
2022-08-26T22:36:35.948Z,19.20
2022-08-26T22:39:07.660Z,19.20
2022-08-26T22:41:40.009Z,19.10
2022-08-26T22:44:07.841Z,19.10
2022-08-26T22:46:38.522Z,19.10
2022-08-26T22:49:06.567Z,19.00
2022-08-26T22:51:34.517Z,19.00
2022-08-26T22:54:02.388Z,19.00
2022-08-26T22:56:30.268Z,19.00
2022-08-26T22:58:59.436Z,19.00
2022-08-26T23:01:27.278Z,19.00
2022-08-26T23:03:55.197Z,19.00
2022-08-26T23:06:23.105Z,18.90
2022-08-26T23:08:50.955Z,18.90
2022-08-26T23:11:19.177Z,18.90
2022-08-26T23:13:46.977Z,18.90
2022-08-26T23:16:16.159Z,18.90
2022-08-26T23:18:44.033Z,18.90
2022-08-26T23:21:12.005Z,18.90
2022-08-26T23:23:39.929Z,18.90
2022-08-26T23:26:08.973Z,18.80
2022-08-26T23:28:37.648Z,18.70
2022-08-26T23:31:06.764Z,18.70
2022-08-26T23:33:53.581Z,18.70
2022-08-26T23:44:17.617Z,18.70
2022-08-26T23:46:45.706Z,18.70
2022-08-26T23:49:15.085Z,18.80
2022-08-26T23:55:51.540Z,18.80
2022-08-26T23:58:21.283Z,18.80
